createdAt,value
2023-03-04T00:03:31.591Z,0.90
2023-03-04T00:08:33.746Z,0.90
2023-03-04T00:13:36.001Z,0.80
2023-03-04T00:18:47.061Z,0.80
2023-03-04T00:23:49.334Z,0.70
2023-03-04T00:28:51.275Z,0.70
2023-03-04T00:33:53.132Z,0.60
2023-03-04T00:38:54.974Z,0.40
2023-03-04T00:43:56.803Z,0.30
2023-03-04T00:48:58.647Z,0.30
2023-03-04T00:54:00.984Z,0.20
2023-03-04T00:59:02.953Z,0.10
2023-03-04T01:04:04.880Z,0.00
2023-03-04T01:09:06.838Z,0.00
2023-03-04T01:14:08.677Z,-0.10
2023-03-04T01:19:10.902Z,-0.10
2023-03-04T01:24:13.835Z,-0.10
2023-03-04T01:29:15.702Z,0.00
2023-03-04T01:34:18.134Z,-0.10
2023-03-04T01:39:20.043Z,-0.20
2023-03-04T01:44:22.096Z,-0.30
2023-03-04T01:49:23.953Z,-0.40
2023-03-04T01:54:26.328Z,-0.40
2023-03-04T01:59:31.485Z,-0.40
2023-03-04T02:04:34.472Z,-0.40
2023-03-04T02:09:36.586Z,-0.40
2023-03-04T02:14:38.954Z,-0.50
2023-03-04T02:20:05.222Z,-0.40
2023-03-04T02:25:16.008Z,-0.50
2023-03-04T02:30:22.047Z,-0.50
2023-03-04T02:35:24.027Z,-0.60
2023-03-04T02:40:30.249Z,-0.50
2023-03-04T02:45:37.076Z,-0.20
2023-03-04T02:50:46.071Z,0.20
2023-03-04T02:55:48.370Z,0.40
2023-03-04T03:00:50.312Z,0.40
2023-03-04T03:05:54.079Z,0.40
2023-03-04T03:10:55.955Z,0.40
2023-03-04T03:15:57.869Z,0.30
2023-03-04T03:20:59.726Z,0.30
2023-03-04T03:26:02.570Z,0.20
2023-03-04T03:31:04.588Z,0.20
2023-03-04T03:36:07.215Z,0.10
2023-03-04T03:41:09.140Z,0.10
2023-03-04T03:46:11.014Z,0.10
2023-03-04T03:51:12.892Z,0.00
2023-03-04T03:56:14.787Z,0.00
2023-03-04T04:01:16.635Z,0.00
2023-03-04T04:06:18.580Z,0.00
2023-03-04T04:11:20.454Z,-0.10
2023-03-04T04:16:22.301Z,-0.20
2023-03-04T04:21:24.319Z,-0.30
2023-03-04T04:26:29.824Z,-0.30
2023-03-04T04:31:31.703Z,-0.20
2023-03-04T04:36:33.607Z,-0.20
2023-03-04T04:41:38.576Z,-0.20
2023-03-04T04:46:40.960Z,-0.20
2023-03-04T04:51:42.903Z,-0.20
2023-03-04T04:56:44.733Z,-0.30
2023-03-04T05:01:46.743Z,-0.40
2023-03-04T05:06:48.607Z,-0.40
2023-03-04T05:11:50.573Z,-0.50
2023-03-04T05:16:53.074Z,-0.50
2023-03-04T05:21:54.952Z,-0.60
2023-03-04T05:26:57.157Z,-0.60
2023-03-04T05:31:59.028Z,-0.60
2023-03-04T05:37:00.910Z,-0.60
2023-03-04T05:42:02.819Z,-0.60
2023-03-04T05:47:04.637Z,-0.60
2023-03-04T05:52:06.512Z,-0.70
2023-03-04T05:57:08.401Z,-0.70
2023-03-04T06:02:10.234Z,-0.70
2023-03-04T06:07:12.060Z,-0.80
2023-03-04T06:12:13.952Z,-0.80
2023-03-04T06:17:15.902Z,-0.80
2023-03-04T06:22:17.751Z,-0.70
2023-03-04T06:27:19.667Z,-0.70
2023-03-04T06:32:21.545Z,-0.50
2023-03-04T06:37:23.739Z,-0.20
2023-03-04T06:42:25.634Z,0.30
2023-03-04T06:47:27.973Z,0.90
2023-03-04T06:52:29.814Z,1.50
2023-03-04T06:57:32.195Z,2.30
2023-03-04T07:02:34.095Z,3.20
2023-03-04T07:07:35.938Z,4.00
2023-03-04T07:12:37.760Z,4.70
2023-03-04T07:17:39.825Z,5.20
2023-03-04T07:22:41.696Z,5.70
2023-03-04T07:27:43.805Z,6.00
2023-03-04T07:32:45.681Z,6.40
2023-03-04T07:37:47.906Z,6.70
2023-03-04T07:42:51.676Z,7.10
2023-03-04T07:47:54.210Z,7.40
2023-03-04T07:52:56.118Z,7.40
2023-03-04T07:57:58.126Z,7.60
2023-03-04T08:02:59.954Z,8.00
2023-03-04T08:08:01.770Z,8.50
2023-03-04T08:13:03.661Z,9.10
2023-03-04T08:18:05.508Z,9.60
2023-03-04T08:23:07.493Z,9.90
2023-03-04T08:28:10.521Z,10.10
2023-03-04T08:33:12.431Z,10.20
2023-03-04T08:38:19.875Z,10.30
2023-03-04T08:43:23.825Z,10.30
2023-03-04T08:48:25.688Z,10.50
2023-03-04T08:53:27.885Z,10.60
2023-03-04T08:58:29.801Z,10.90
2023-03-04T09:03:31.794Z,11.20
2023-03-04T09:08:34.308Z,11.60
2023-03-04T09:13:36.539Z,12.10
2023-03-04T09:18:39.752Z,12.20
2023-03-04T09:23:42.049Z,12.40
2023-03-04T09:28:45.257Z,12.60
2023-03-04T09:33:49.471Z,12.40
2023-03-04T09:38:51.413Z,12.70
2023-03-04T09:43:53.989Z,13.00
2023-03-04T09:48:56.784Z,13.20
2023-03-04T09:54:01.254Z,13.50
2023-03-04T09:59:32.666Z,13.80
2023-03-04T10:04:40.736Z,14.00
2023-03-04T10:09:54.180Z,13.90
2023-03-04T10:15:05.138Z,13.90
2023-03-04T10:20:19.878Z,13.80
2023-03-04T10:25:33.050Z,13.80
2023-03-04T10:30:56.824Z,14.00
2023-03-04T10:36:05.206Z,14.10
2023-03-04T10:41:14.294Z,14.20
2023-03-04T10:46:18.314Z,14.40
2023-03-04T10:51:25.352Z,14.70
2023-03-04T10:56:54.464Z,14.90
2023-03-04T11:02:02.081Z,14.90
2023-03-04T11:07:11.277Z,14.90
2023-03-04T11:12:15.632Z,14.90
2023-03-04T11:17:29.288Z,15.10
2023-03-04T11:22:31.645Z,15.10
2023-03-04T11:27:38.826Z,15.30
2023-03-04T11:32:44.335Z,15.40
2023-03-04T11:37:50.976Z,15.30
2023-03-04T11:42:59.740Z,15.10
2023-03-04T11:48:09.397Z,15.00
2023-03-04T11:53:32.337Z,14.70
2023-03-04T11:58:55.972Z,14.70
2023-03-04T12:04:03.562Z,14.70
2023-03-04T12:09:23.703Z,14.70
2023-03-04T12:14:30.457Z,14.90
2023-03-04T12:20:17.119Z,15.10
2023-03-04T12:25:27.235Z,14.90
2023-03-04T12:30:58.382Z,14.80
2023-03-04T12:36:12.265Z,14.90
2023-03-04T12:41:19.819Z,14.80
2023-03-04T12:46:34.036Z,14.80
2023-03-04T12:51:45.038Z,14.90
2023-03-04T12:56:54.994Z,15.10
2023-03-04T13:02:13.713Z,15.00
2023-03-04T13:07:37.359Z,14.90
2023-03-04T13:12:56.356Z,14.70
2023-03-04T13:18:24.347Z,14.40
2023-03-04T13:23:28.582Z,14.10
2023-03-04T13:28:35.638Z,13.60
2023-03-04T13:33:37.416Z,12.90
2023-03-04T13:38:39.405Z,12.20
2023-03-04T13:43:44.785Z,11.70
2023-03-04T13:48:49.581Z,11.40
2023-03-04T13:53:54.808Z,11.30
2023-03-04T13:59:02.651Z,11.20
2023-03-04T14:04:20.804Z,10.90
2023-03-04T14:09:25.434Z,10.40
2023-03-04T14:14:42.907Z,10.20
2023-03-04T14:19:46.693Z,9.80
2023-03-04T14:25:02.345Z,9.60
2023-03-04T14:30:08.191Z,9.30
2023-03-04T14:35:24.149Z,9.10
2023-03-04T14:40:28.987Z,8.90
2023-03-04T14:45:31.185Z,8.70
2023-03-04T14:50:34.518Z,8.60
2023-03-04T14:55:37.558Z,8.50
2023-03-04T15:00:43.210Z,8.30
2023-03-04T15:05:45.109Z,8.30
2023-03-04T15:10:56.583Z,8.20
2023-03-04T15:16:02.358Z,8.00
2023-03-04T15:21:32.797Z,7.80
2023-03-04T15:26:39.030Z,7.60
2023-03-04T15:31:43.651Z,7.50
2023-03-04T15:36:50.462Z,7.40
2023-03-04T15:41:52.285Z,7.30
2023-03-04T15:46:54.176Z,7.20
2023-03-04T15:51:56.154Z,7.10
2023-03-04T15:57:00.147Z,6.90
2023-03-04T16:02:02.014Z,6.80
2023-03-04T16:07:04.016Z,6.70
2023-03-04T16:12:06.278Z,6.60
2023-03-04T16:17:09.629Z,6.50
2023-03-04T16:22:20.434Z,6.40
2023-03-04T16:27:23.904Z,6.30
2023-03-04T16:32:25.782Z,6.20
2023-03-04T16:37:27.615Z,6.10
2023-03-04T16:42:29.723Z,6.00
2023-03-04T16:47:31.545Z,6.00
2023-03-04T16:52:34.712Z,5.90
2023-03-04T16:57:37.594Z,5.70
2023-03-04T17:02:39.462Z,5.60
2023-03-04T17:07:41.365Z,5.40
2023-03-04T17:12:43.734Z,5.30
2023-03-04T17:17:45.786Z,5.30
2023-03-04T17:22:47.615Z,5.20
2023-03-04T17:27:50.585Z,5.20
2023-03-04T17:32:52.516Z,5.10
2023-03-04T17:37:54.332Z,5.00
2023-03-04T17:42:57.036Z,4.90
2023-03-04T17:47:58.895Z,4.80
2023-03-04T17:53:00.786Z,4.80
2023-03-04T17:58:02.618Z,4.70
2023-03-04T18:03:04.504Z,4.70
2023-03-04T18:08:06.470Z,4.60
2023-03-04T18:13:08.674Z,4.60
2023-03-04T18:18:10.539Z,4.50
2023-03-04T18:23:12.356Z,4.30
2023-03-04T18:28:14.170Z,4.20
2023-03-04T18:33:16.126Z,4.10
2023-03-04T18:38:17.984Z,4.00
2023-03-04T18:43:20.063Z,4.00
2023-03-04T18:48:21.952Z,3.90
2023-03-04T18:53:27.156Z,3.90
2023-03-04T18:58:30.737Z,3.80
2023-03-04T19:03:34.489Z,3.80
2023-03-04T19:08:36.637Z,3.70
2023-03-04T19:13:38.440Z,3.70
2023-03-04T19:18:40.240Z,3.60
2023-03-04T19:23:42.142Z,3.60
2023-03-04T19:28:44.008Z,3.50
2023-03-04T19:33:45.819Z,3.40
2023-03-04T19:38:47.628Z,3.40
2023-03-04T19:43:50.357Z,3.30
2023-03-04T19:48:52.633Z,3.30
2023-03-04T19:53:55.416Z,3.30
2023-03-04T19:58:57.935Z,3.20
2023-03-04T20:04:18.130Z,3.10
2023-03-04T20:09:21.338Z,3.10
2023-03-04T20:14:23.210Z,3.10
2023-03-04T20:19:25.142Z,3.10
2023-03-04T20:24:28.326Z,3.00
2023-03-04T20:29:30.295Z,3.00
2023-03-04T20:34:32.520Z,3.00
2023-03-04T20:39:34.324Z,3.00
2023-03-04T20:44:36.508Z,3.00
2023-03-04T20:49:38.859Z,3.10
2023-03-04T20:54:40.977Z,3.10
2023-03-04T20:59:42.895Z,3.10
2023-03-04T21:04:44.818Z,3.20
2023-03-04T21:09:49.459Z,3.20
2023-03-04T21:14:51.393Z,3.30
2023-03-04T21:19:54.365Z,3.40
2023-03-04T21:24:56.349Z,3.40
2023-03-04T21:29:58.183Z,3.40
2023-03-04T21:35:00.044Z,3.40
2023-03-04T21:40:03.139Z,3.40
2023-03-04T21:45:07.287Z,3.50
2023-03-04T21:50:09.704Z,3.50
2023-03-04T21:55:12.429Z,3.50
2023-03-04T22:00:15.631Z,3.50
2023-03-04T22:05:19.070Z,3.50
2023-03-04T22:10:21.091Z,3.50
2023-03-04T22:15:22.924Z,3.50
2023-03-04T22:20:25.594Z,3.50
2023-03-04T22:25:27.967Z,3.50
2023-03-04T22:30:31.545Z,3.40
2023-03-04T22:35:33.548Z,3.40
2023-03-04T22:40:36.472Z,3.40
2023-03-04T22:45:38.534Z,3.40
2023-03-04T22:50:40.803Z,3.30
2023-03-04T22:55:42.644Z,3.30
2023-03-04T23:00:48.425Z,3.20
2023-03-04T23:06:06.357Z,3.10
2023-03-04T23:11:10.339Z,3.10
2023-03-04T23:16:13.102Z,3.00
2023-03-04T23:21:21.749Z,3.00
2023-03-04T23:26:26.476Z,3.00
2023-03-04T23:31:32.101Z,3.00
2023-03-04T23:36:38.662Z,3.00
2023-03-04T23:41:40.785Z,2.90
2023-03-04T23:46:42.747Z,2.90
2023-03-04T23:51:45.458Z,2.90
2023-03-04T23:56:49.242Z,2.90
